createdAt,value
2019-01-21T00:00:39.233Z,100.00
2019-01-21T00:03:14.426Z,100.00
2019-01-21T00:05:38.880Z,100.00
2019-01-21T00:08:07.528Z,100.00
2019-01-21T00:10:36.272Z,100.00
2019-01-21T00:13:05.614Z,100.00
2019-01-21T00:15:34.353Z,100.00
2019-01-21T00:18:03.002Z,100.00
2019-01-21T00:20:31.730Z,100.00
2019-01-21T00:23:00.448Z,100.00
2019-01-21T00:25:29.646Z,100.00
2019-01-21T00:27:58.354Z,100.00
2019-01-21T00:30:27.071Z,100.00
2019-01-21T00:32:56.010Z,100.00
2019-01-21T00:35:24.642Z,100.00
2019-01-21T00:37:53.278Z,100.00
2019-01-21T00:40:21.950Z,100.00
2019-01-21T00:42:50.579Z,100.00
2019-01-21T00:45:19.391Z,100.00
2019-01-21T00:47:48.071Z,100.00
2019-01-21T00:50:16.795Z,100.00
2019-01-21T00:52:45.419Z,100.00
2019-01-21T00:55:14.713Z,100.00
2019-01-21T00:57:43.412Z,100.00
2019-01-21T01:00:15.029Z,100.00
2019-01-21T01:02:43.802Z,100.00
2019-01-21T01:05:13.032Z,100.00
2019-01-21T01:07:41.878Z,100.00
2019-01-21T01:10:12.469Z,100.00
2019-01-21T01:12:41.112Z,100.00
2019-01-21T01:15:12.113Z,100.00
2019-01-21T01:17:40.768Z,100.00
2019-01-21T01:20:15.075Z,100.00
2019-01-21T01:22:43.767Z,100.00
2019-01-21T01:25:12.649Z,100.00
2019-01-21T01:27:41.389Z,100.00
2019-01-21T01:30:12.683Z,100.00
2019-01-21T01:32:41.653Z,100.00
2019-01-21T01:35:11.487Z,100.00
2019-01-21T01:37:40.322Z,100.00
2019-01-21T01:40:12.419Z,100.00
2019-01-21T01:42:41.220Z,100.00
2019-01-21T01:45:13.008Z,100.00
2019-01-21T01:47:44.891Z,100.00
2019-01-21T01:50:12.276Z,100.00
2019-01-21T01:52:41.165Z,100.00
2019-01-21T01:55:11.022Z,100.00
2019-01-21T01:57:39.732Z,100.00
2019-01-21T02:00:14.307Z,100.00
2019-01-21T02:02:43.133Z,100.00
2019-01-21T02:05:11.951Z,100.00
2019-01-21T02:07:40.696Z,100.00
2019-01-21T02:10:12.399Z,100.00
2019-01-21T02:12:41.020Z,100.00
2019-01-21T02:15:12.062Z,100.00
2019-01-21T02:17:40.968Z,100.00
2019-01-21T02:20:12.546Z,100.00
2019-01-21T02:22:43.708Z,100.00
2019-01-21T02:25:13.282Z,100.00
2019-01-21T02:28:16.584Z,100.00
2019-01-21T02:30:57.045Z,100.00
2019-01-21T02:33:43.041Z,100.00
2019-01-21T02:36:14.587Z,100.00
2019-01-21T02:39:07.493Z,100.00
2019-01-21T02:41:37.938Z,100.00
2019-01-21T02:44:12.450Z,100.00
2019-01-21T02:46:52.849Z,100.00
2019-01-21T02:49:43.913Z,100.00
2019-01-21T02:52:24.479Z,100.00
2019-01-21T02:55:02.171Z,100.00
2019-01-21T02:57:42.879Z,100.00
2019-01-21T03:00:37.228Z,100.00
2019-01-21T03:03:31.483Z,100.00
2019-01-21T03:06:11.971Z,100.00
2019-01-21T03:08:49.312Z,100.00
2019-01-21T03:11:26.962Z,100.00
2019-01-21T03:14:10.862Z,100.00
2019-01-21T03:17:03.642Z,100.00
2019-01-21T03:19:44.174Z,100.00
2019-01-21T03:22:21.555Z,100.00
2019-01-21T03:24:59.273Z,100.00
2019-01-21T03:27:45.939Z,100.00
2019-01-21T03:30:29.796Z,100.00
2019-01-21T03:33:28.814Z,100.00
2019-01-21T03:36:06.398Z,100.00
2019-01-21T03:38:56.003Z,100.00
2019-01-21T03:41:33.493Z,100.00
2019-01-21T03:44:31.162Z,100.00
2019-01-21T03:47:18.181Z,100.00
2019-01-21T03:50:15.767Z,100.00
2019-01-21T03:52:47.296Z,100.00
2019-01-21T03:55:16.933Z,100.00
2019-01-21T03:57:57.263Z,100.00
2019-01-21T04:00:29.187Z,100.00
2019-01-21T04:03:12.628Z,100.00
2019-01-21T04:05:52.805Z,100.00
2019-01-21T04:08:27.307Z,100.00
2019-01-21T04:10:58.952Z,100.00
2019-01-21T04:13:51.850Z,100.00
2019-01-21T04:16:44.646Z,100.00
2019-01-21T04:19:18.911Z,100.00
2019-01-21T04:22:14.631Z,100.00
2019-01-21T04:24:55.226Z,100.00
2019-01-21T04:27:35.508Z,100.00
2019-01-21T04:30:19.060Z,100.00
2019-01-21T04:32:59.713Z,100.00
2019-01-21T04:35:31.375Z,100.00
2019-01-21T04:38:15.034Z,100.00
2019-01-21T04:40:58.777Z,100.00
2019-01-21T04:43:36.176Z,100.00
2019-01-21T04:46:13.877Z,100.00
2019-01-21T04:48:48.354Z,100.00
2019-01-21T04:51:45.779Z,100.00
2019-01-21T04:54:33.966Z,100.00
2019-01-21T04:57:18.342Z,100.00
2019-01-21T05:00:16.573Z,100.00
2019-01-21T05:03:00.759Z,100.00
2019-01-21T05:05:44.353Z,100.00
2019-01-21T05:08:34.259Z,100.00
2019-01-21T05:11:24.096Z,100.00
2019-01-21T05:13:55.735Z,100.00
2019-01-21T05:16:44.226Z,100.00
2019-01-21T05:19:24.843Z,100.00
2019-01-21T05:22:26.960Z,100.00
2019-01-21T05:25:16.983Z,100.00
2019-01-21T05:27:54.948Z,100.00
2019-01-21T05:30:32.342Z,100.00
2019-01-21T05:33:06.770Z,100.00
2019-01-21T05:35:38.355Z,100.00
2019-01-21T05:38:15.678Z,100.00
2019-01-21T05:40:47.498Z,100.00
2019-01-21T05:43:28.136Z,100.00
2019-01-21T05:45:59.943Z,100.00
2019-01-21T05:48:40.262Z,100.00
2019-01-21T05:51:14.823Z,100.00
2019-01-21T05:53:49.168Z,100.00
2019-01-21T05:56:35.958Z,100.00
2019-01-21T05:59:28.659Z,100.00
2019-01-21T06:02:05.970Z,100.00
2019-01-21T06:04:43.454Z,100.00
2019-01-21T06:07:24.145Z,100.00
2019-01-21T06:10:07.533Z,100.00
2019-01-21T06:12:48.234Z,100.00
2019-01-21T06:15:22.595Z,100.00
2019-01-21T06:18:00.032Z,100.00
2019-01-21T06:20:48.347Z,100.00
2019-01-21T06:23:26.086Z,100.00
2019-01-21T06:26:21.808Z,100.00
2019-01-21T06:29:17.408Z,100.00
2019-01-21T06:31:51.586Z,100.00
2019-01-21T06:34:41.618Z,100.00
2019-01-21T06:37:28.007Z,100.00
2019-01-21T06:40:26.925Z,100.00
2019-01-21T06:42:58.456Z,100.00
2019-01-21T06:45:38.799Z,100.00
2019-01-21T06:48:31.561Z,100.00
2019-01-21T06:51:24.354Z,100.00
2019-01-21T06:54:17.188Z,100.00
2019-01-21T06:56:54.721Z,100.00
2019-01-21T06:59:35.080Z,100.00
2019-01-21T07:02:12.341Z,100.00
2019-01-21T07:05:01.912Z,100.00
2019-01-21T07:07:59.291Z,100.00
2019-01-21T07:10:39.593Z,100.00
2019-01-21T07:13:16.989Z,100.00
2019-01-21T07:16:00.838Z,100.00
2019-01-21T07:18:35.406Z,100.00
2019-01-21T07:21:12.992Z,100.00
2019-01-21T07:24:02.882Z,100.00
2019-01-21T07:26:34.424Z,100.00
2019-01-21T07:29:24.693Z,100.00
2019-01-21T07:31:56.246Z,100.00
2019-01-21T07:34:30.962Z,100.00
2019-01-21T07:37:02.519Z,100.00
2019-01-21T07:39:39.872Z,100.00
2019-01-21T07:42:23.591Z,100.00
2019-01-21T07:45:13.837Z,100.00
2019-01-21T07:48:09.949Z,100.00
2019-01-21T07:50:50.495Z,100.00
2019-01-21T07:53:34.103Z,100.00
2019-01-21T07:56:14.929Z,100.00
2019-01-21T07:59:04.706Z,100.00
2019-01-21T08:01:48.240Z,100.00
2019-01-21T08:04:25.727Z,100.00
2019-01-21T08:07:00.296Z,100.00
2019-01-21T08:09:57.573Z,100.00
2019-01-21T08:12:31.674Z,100.00
2019-01-21T08:15:09.197Z,100.00
2019-01-21T08:17:56.069Z,100.00
2019-01-21T08:20:27.683Z,100.00
2019-01-21T08:23:02.086Z,100.00
2019-01-21T08:25:51.854Z,100.00
2019-01-21T08:28:43.195Z,100.00
2019-01-21T08:31:20.765Z,100.00
2019-01-21T08:34:01.105Z,100.00
2019-01-21T08:36:52.179Z,100.00
2019-01-21T08:39:41.939Z,100.00
2019-01-21T08:42:19.493Z,100.00
2019-01-21T08:45:13.391Z,99.00
2019-01-21T08:47:50.811Z,100.00
2019-01-21T08:50:31.456Z,100.00
2019-01-21T08:53:21.117Z,100.00
2019-01-21T08:55:55.407Z,99.90
2019-01-21T08:58:41.896Z,98.97
2019-01-21T09:01:38.117Z,99.23
2019-01-21T09:04:24.870Z,99.01
2019-01-21T09:07:05.436Z,99.03
2019-01-21T09:09:42.786Z,99.07
2019-01-21T09:12:23.235Z,98.62
2019-01-21T09:15:00.525Z,98.42
2019-01-21T09:17:44.134Z,97.40
2019-01-21T09:20:24.545Z,97.33
2019-01-21T09:22:59.017Z,98.22
2019-01-21T09:25:33.509Z,98.98
2019-01-21T09:28:22.897Z,99.02
2019-01-21T09:31:23.203Z,99.05
2019-01-21T09:34:17.786Z,98.40
2019-01-21T09:37:21.393Z,98.63
2019-01-21T09:39:58.882Z,98.46
2019-01-21T09:42:30.484Z,98.10
2019-01-21T09:45:19.986Z,97.60
2019-01-21T09:47:47.390Z,97.08
2019-01-21T09:50:16.893Z,96.05
2019-01-21T09:52:45.785Z,95.41
2019-01-21T09:55:16.316Z,94.68
2019-01-21T09:57:45.614Z,92.18
2019-01-21T10:00:17.577Z,92.92
2019-01-21T10:02:48.452Z,91.90
2019-01-21T10:05:17.158Z,92.54
2019-01-21T10:07:51.521Z,92.47
2019-01-21T10:10:35.106Z,91.84
2019-01-21T10:13:36.103Z,91.42
2019-01-21T10:16:19.417Z,90.14
2019-01-21T10:19:09.202Z,90.04
2019-01-21T10:21:49.680Z,90.48
2019-01-21T10:24:45.722Z,90.30
2019-01-21T10:27:35.463Z,89.81
2019-01-21T10:30:22.329Z,89.62
2019-01-21T10:33:03.032Z,89.33
2019-01-21T10:35:46.053Z,89.21
2019-01-21T10:38:43.053Z,89.48
2019-01-21T10:41:20.734Z,88.05
2019-01-21T10:44:13.665Z,86.87
2019-01-21T10:46:45.321Z,87.34
2019-01-21T10:49:22.868Z,87.49
2019-01-21T10:52:11.934Z,88.02
2019-01-21T10:54:55.400Z,88.01
2019-01-21T10:57:27.060Z,87.26
2019-01-21T11:00:18.542Z,87.42
2019-01-21T11:03:12.684Z,87.15
2019-01-21T11:05:50.312Z,88.82
2019-01-21T11:08:24.688Z,89.01
2019-01-21T11:11:08.118Z,88.29
2019-01-21T11:13:42.669Z,87.79
2019-01-21T11:16:17.112Z,88.67
2019-01-21T11:18:57.679Z,87.97
2019-01-21T11:21:29.284Z,86.88
2019-01-21T11:24:21.934Z,86.82
2019-01-21T11:26:56.507Z,87.55
2019-01-21T11:29:39.977Z,86.98
2019-01-21T11:32:26.721Z,86.32
2019-01-21T11:35:23.022Z,85.36
2019-01-21T11:38:12.400Z,84.62
2019-01-21T11:40:46.620Z,83.75
2019-01-21T11:43:24.272Z,83.37
2019-01-21T11:46:01.816Z,84.53
2019-01-21T11:48:45.357Z,85.31
2019-01-21T11:51:19.881Z,84.66
2019-01-21T11:54:03.674Z,84.98
2019-01-21T11:56:44.377Z,83.94
2019-01-21T11:59:18.859Z,84.66
2019-01-21T12:01:53.244Z,85.35
2019-01-21T12:04:40.103Z,86.08
2019-01-21T12:07:15.364Z,86.05
2019-01-21T12:10:11.293Z,86.33
2019-01-21T12:12:48.489Z,86.16
2019-01-21T12:15:20.020Z,86.83
2019-01-21T12:18:00.418Z,87.34
2019-01-21T12:20:37.634Z,86.63
2019-01-21T12:23:24.265Z,85.79
2019-01-21T12:26:01.783Z,85.12
2019-01-21T12:28:33.378Z,86.37
2019-01-21T12:31:13.728Z,86.32
2019-01-21T12:33:54.663Z,85.93
2019-01-21T12:36:26.202Z,84.77
2019-01-21T12:39:09.931Z,86.69
2019-01-21T12:41:59.811Z,86.02
2019-01-21T12:44:43.207Z,85.44
2019-01-21T12:47:17.464Z,84.16
2019-01-21T12:50:01.052Z,84.07
2019-01-21T12:52:35.399Z,83.86
2019-01-21T12:55:22.139Z,84.23
2019-01-21T12:58:16.559Z,84.01
2019-01-21T13:01:06.110Z,83.41
2019-01-21T13:04:01.637Z,86.18
2019-01-21T13:06:49.370Z,85.22
2019-01-21T13:09:26.471Z,85.26
2019-01-21T13:12:00.713Z,84.51
2019-01-21T13:14:56.459Z,85.73
2019-01-21T13:17:28.059Z,86.19
2019-01-21T13:20:17.069Z,85.83
2019-01-21T13:22:54.525Z,85.93
2019-01-21T13:25:41.587Z,85.64
2019-01-21T13:28:13.135Z,86.84
2019-01-21T13:30:59.581Z,87.00
2019-01-21T13:33:56.656Z,85.92
2019-01-21T13:36:33.988Z,86.24
2019-01-21T13:39:08.137Z,85.43
2019-01-21T13:41:52.062Z,87.43
2019-01-21T13:44:23.741Z,87.43
2019-01-21T13:47:13.241Z,88.57
2019-01-21T13:49:48.152Z,87.86
2019-01-21T13:52:40.582Z,87.22
2019-01-21T13:55:29.898Z,87.29
2019-01-21T13:58:01.537Z,89.24
2019-01-21T14:00:39.449Z,88.81
2019-01-21T14:03:11.211Z,88.58
2019-01-21T14:05:54.612Z,88.08
2019-01-21T14:08:34.843Z,88.95
2019-01-21T14:11:22.986Z,89.53
2019-01-21T14:13:54.568Z,90.97
2019-01-21T14:16:29.026Z,91.57
2019-01-21T14:19:17.323Z,92.41
2019-01-21T14:22:03.732Z,91.81
2019-01-21T14:24:41.080Z,92.00
2019-01-21T14:27:38.468Z,91.78
2019-01-21T14:30:12.935Z,92.00
2019-01-21T14:32:47.385Z,93.55
2019-01-21T14:35:28.937Z,92.61
2019-01-21T14:38:09.496Z,92.83
2019-01-21T14:40:59.293Z,92.24
2019-01-21T14:43:33.958Z,91.25
2019-01-21T14:46:23.372Z,91.56
2019-01-21T14:48:54.918Z,92.96
2019-01-21T14:51:52.660Z,94.08
2019-01-21T14:54:24.301Z,94.49
2019-01-21T14:57:04.856Z,93.81
2019-01-21T14:59:36.447Z,93.35
2019-01-21T15:02:23.302Z,93.64
2019-01-21T15:05:18.997Z,93.20
2019-01-21T15:08:02.651Z,93.97
2019-01-21T15:10:37.273Z,93.65
2019-01-21T15:13:14.871Z,93.84
2019-01-21T15:15:52.228Z,94.21
2019-01-21T15:18:35.893Z,94.38
2019-01-21T15:21:16.322Z,93.94
2019-01-21T15:23:54.061Z,94.36
2019-01-21T15:26:28.325Z,94.01
2019-01-21T15:29:25.887Z,93.77
2019-01-21T15:32:00.026Z,93.05
2019-01-21T15:34:40.659Z,93.94
2019-01-21T15:37:12.247Z,93.91
2019-01-21T15:40:05.218Z,93.84
2019-01-21T15:42:51.883Z,94.61
2019-01-21T15:45:52.065Z,95.77
2019-01-21T15:48:38.886Z,96.67
2019-01-21T15:51:19.117Z,97.77
2019-01-21T15:53:53.797Z,97.96
2019-01-21T15:56:34.269Z,97.80
2019-01-21T15:59:08.451Z,97.43
2019-01-21T16:01:40.196Z,97.23
2019-01-21T16:04:17.671Z,97.20
2019-01-21T16:06:58.365Z,97.91
2019-01-21T16:09:48.039Z,98.66
2019-01-21T16:12:22.093Z,98.47
2019-01-21T16:15:19.325Z,98.38
2019-01-21T16:17:50.911Z,98.00
2019-01-21T16:20:22.868Z,98.01
2019-01-21T16:23:06.430Z,97.58
2019-01-21T16:25:38.746Z,97.55
2019-01-21T16:28:22.092Z,100.00
2019-01-21T16:30:56.487Z,99.31
2019-01-21T16:33:46.180Z,99.43
2019-01-21T16:36:29.495Z,99.62
2019-01-21T16:39:01.141Z,99.18
2019-01-21T16:41:44.864Z,98.93
2019-01-21T16:44:13.682Z,98.81
2019-01-21T16:46:52.419Z,98.69
2019-01-21T16:49:21.083Z,98.90
2019-01-21T16:51:49.710Z,98.24
2019-01-21T16:54:18.399Z,98.13
2019-01-21T16:56:47.102Z,98.50
2019-01-21T16:59:15.721Z,97.48
2019-01-21T17:01:44.447Z,97.54
2019-01-21T17:04:13.594Z,97.37
2019-01-21T17:06:42.292Z,97.32
2019-01-21T17:09:11.218Z,97.52
2019-01-21T17:11:39.850Z,97.82
2019-01-21T17:14:10.156Z,97.99
2019-01-21T17:16:38.848Z,98.02
2019-01-21T17:19:07.687Z,98.39
2019-01-21T17:21:36.318Z,98.61
2019-01-21T17:24:05.248Z,99.04
2019-01-21T17:26:33.973Z,99.15
2019-01-21T17:29:02.610Z,99.55
2019-01-21T17:31:31.229Z,99.29
2019-01-21T17:33:59.951Z,98.56
2019-01-21T17:36:28.657Z,98.32
2019-01-21T17:38:57.460Z,99.73
2019-01-21T17:41:26.149Z,99.36
2019-01-21T17:43:54.767Z,99.83
2019-01-21T17:46:23.417Z,100.00
2019-01-21T17:48:52.107Z,100.00
2019-01-21T17:51:20.835Z,100.00
2019-01-21T17:53:51.441Z,100.00
2019-01-21T17:56:19.925Z,100.00
2019-01-21T17:58:48.663Z,100.00
2019-01-21T18:01:17.353Z,100.00
2019-01-21T18:03:45.998Z,100.00
2019-01-21T18:06:14.870Z,100.00
2019-01-21T18:08:46.278Z,100.00
2019-01-21T18:11:14.921Z,100.00
2019-01-21T18:13:43.599Z,100.00
2019-01-21T18:16:12.244Z,100.00
2019-01-21T18:18:40.927Z,100.00
2019-01-21T18:21:09.654Z,100.00
2019-01-21T18:23:38.388Z,100.00
2019-01-21T18:26:07.013Z,100.00
2019-01-21T18:28:35.762Z,100.00
2019-01-21T18:31:04.400Z,100.00
2019-01-21T18:33:33.132Z,100.00
2019-01-21T18:36:02.064Z,100.00
2019-01-21T18:38:30.688Z,100.00
2019-01-21T18:40:59.319Z,100.00
2019-01-21T18:43:28.051Z,100.00
2019-01-21T18:45:56.748Z,100.00
2019-01-21T18:48:25.378Z,100.00
2019-01-21T18:50:54.053Z,100.00
2019-01-21T18:53:22.752Z,100.00
2019-01-21T18:55:51.461Z,100.00
2019-01-21T18:58:20.125Z,100.00
2019-01-21T19:00:48.823Z,100.00
2019-01-21T19:03:17.575Z,100.00
2019-01-21T19:05:46.254Z,100.00
2019-01-21T19:08:14.947Z,100.00
2019-01-21T19:10:43.660Z,100.00
2019-01-21T19:13:12.351Z,100.00
2019-01-21T19:15:40.984Z,100.00
2019-01-21T19:18:09.690Z,100.00
2019-01-21T19:20:38.417Z,100.00
2019-01-21T19:23:07.050Z,100.00
2019-01-21T19:25:35.692Z,100.00
2019-01-21T19:28:04.646Z,100.00
2019-01-21T19:30:33.319Z,100.00
2019-01-21T19:33:01.962Z,100.00
2019-01-21T19:35:33.213Z,100.00
2019-01-21T19:38:02.150Z,100.00
2019-01-21T19:40:32.170Z,100.00
2019-01-21T19:43:00.929Z,100.00
2019-01-21T19:45:29.666Z,100.00
2019-01-21T19:47:58.364Z,100.00
2019-01-21T19:50:27.097Z,100.00
2019-01-21T19:52:55.739Z,100.00
2019-01-21T19:55:30.448Z,100.00
2019-01-21T19:57:59.230Z,100.00
2019-01-21T20:00:27.959Z,100.00
2019-01-21T20:02:56.669Z,100.00
2019-01-21T20:05:25.344Z,100.00
2019-01-21T20:07:54.038Z,100.00
2019-01-21T20:10:24.373Z,100.00
2019-01-21T20:12:53.046Z,100.00
2019-01-21T20:15:21.874Z,100.00
2019-01-21T20:17:50.439Z,100.00
2019-01-21T20:20:31.071Z,100.00
2019-01-21T20:22:59.712Z,100.00
2019-01-21T20:25:28.348Z,100.00
2019-01-21T20:27:57.022Z,100.00
2019-01-21T20:30:26.159Z,100.00
2019-01-21T20:32:54.773Z,100.00
2019-01-21T20:35:23.628Z,100.00
2019-01-21T20:37:52.255Z,100.00
2019-01-21T20:40:29.038Z,100.00
2019-01-21T20:42:57.796Z,100.00
2019-01-21T20:45:26.434Z,100.00
2019-01-21T20:47:55.101Z,100.00
2019-01-21T20:50:29.540Z,100.00
2019-01-21T20:52:58.274Z,100.00
2019-01-21T20:55:27.383Z,100.00
2019-01-21T20:57:55.943Z,100.00
2019-01-21T21:00:29.228Z,100.00
2019-01-21T21:02:58.330Z,100.00
2019-01-21T21:05:26.959Z,100.00
2019-01-21T21:07:55.539Z,100.00
2019-01-21T21:10:24.381Z,100.00
2019-01-21T21:12:53.023Z,100.00
2019-01-21T21:15:24.164Z,100.00
2019-01-21T21:17:52.937Z,100.00
2019-01-21T21:20:21.572Z,100.00
2019-01-21T21:22:50.201Z,100.00
2019-01-21T21:25:22.139Z,100.00
2019-01-21T21:27:50.772Z,100.00
2019-01-21T21:30:30.557Z,100.00
2019-01-21T21:32:59.184Z,100.00
2019-01-21T21:35:27.809Z,100.00
2019-01-21T21:37:56.475Z,100.00
2019-01-21T21:40:25.401Z,100.00
2019-01-21T21:42:54.028Z,100.00
2019-01-21T21:45:23.105Z,100.00
2019-01-21T21:47:52.204Z,100.00
2019-01-21T21:50:23.918Z,100.00
2019-01-21T21:52:52.588Z,100.00
2019-01-21T21:55:21.213Z,100.00
2019-01-21T21:57:49.846Z,100.00
2019-01-21T22:00:21.398Z,100.00
2019-01-21T22:02:50.039Z,100.00
2019-01-21T22:05:19.777Z,100.00
2019-01-21T22:07:48.715Z,100.00
2019-01-21T22:10:20.512Z,100.00
2019-01-21T22:12:50.353Z,100.00
2019-01-21T22:15:20.924Z,100.00
2019-01-21T22:17:49.550Z,100.00
2019-01-21T22:20:20.343Z,100.00
2019-01-21T22:22:49.251Z,100.00
2019-01-21T22:25:18.345Z,100.00
2019-01-21T22:27:46.973Z,100.00
2019-01-21T22:30:18.456Z,100.00
2019-01-21T22:32:47.027Z,100.00
2019-01-21T22:35:15.663Z,100.00
2019-01-21T23:55:24.647Z,100.00
2019-01-21T23:57:53.355Z,100.00
